sensor_id;sensor_type;location;lat;lon;timestamp;pressure;altitude;pressure_sealevel;temperature;humidity
74680;BME280;63211;48.548;2.704;2024-03-06T00:02:19;100956.28;;;18.82;51.54
74680;BME280;63211;48.548;2.704;2024-03-06T00:04:45;100932.06;;;18.68;51.24
74680;BME280;63211;48.548;2.704;2024-03-06T00:07:12;100957.56;;;18.80;51.28
74680;BME280;63211;48.548;2.704;2024-03-06T00:09:39;100958.00;;;18.77;51.65
74680;BME280;63211;48.548;2.704;2024-03-06T00:12:05;100957.38;;;18.75;52.05
74680;BME280;63211;48.548;2.704;2024-03-06T00:14:34;100962.22;;;18.73;51.78
74680;BME280;63211;48.548;2.704;2024-03-06T00:17:01;100952.34;;;18.72;52.05
74680;BME280;63211;48.548;2.704;2024-03-06T00:19:30;100957.44;;;18.68;51.67
74680;BME280;63211;48.548;2.704;2024-03-06T00:21:56;100963.25;;;18.72;51.66
74680;BME280;63211;48.548;2.704;2024-03-06T00:24:25;100951.53;;;18.71;51.75
74680;BME280;63211;48.548;2.704;2024-03-06T00:26:51;100965.78;;;18.73;51.72
74680;BME280;63211;48.548;2.704;2024-03-06T00:29:18;100964.72;;;18.74;51.75
74680;BME280;63211;48.548;2.704;2024-03-06T00:31:46;100977.09;;;18.77;51.61
74680;BME280;63211;48.548;2.704;2024-03-06T00:34:13;100976.25;;;18.76;51.63
74680;BME280;63211;48.548;2.704;2024-03-06T00:36:40;100977.91;;;18.77;51.44
74680;BME280;63211;48.548;2.704;2024-03-06T00:39:07;100984.22;;;18.78;51.15
74680;BME280;63211;48.548;2.704;2024-03-06T00:41:34;100979.59;;;18.78;51.32
74680;BME280;63211;48.548;2.704;2024-03-06T00:44:01;100982.13;;;18.73;51.24
74680;BME280;63211;48.548;2.704;2024-03-06T00:46:28;100978.34;;;18.74;51.16
74680;BME280;63211;48.548;2.704;2024-03-06T00:48:56;100982.13;;;18.73;51.42
74680;BME280;63211;48.548;2.704;2024-03-06T00:51:23;100985.94;;;18.72;51.40
74680;BME280;63211;48.548;2.704;2024-03-06T00:53:49;100988.66;;;18.72;51.02
74680;BME280;63211;48.548;2.704;2024-03-06T00:56:16;100986.38;;;18.69;51.57
74680;BME280;63211;48.548;2.704;2024-03-06T00:58:42;100992.06;;;18.68;51.28
74680;BME280;63211;48.548;2.704;2024-03-06T01:01:09;100990.41;;;18.67;51.24
74680;BME280;63211;48.548;2.704;2024-03-06T01:03:37;100988.50;;;18.67;51.46
74680;BME280;63211;48.548;2.704;2024-03-06T01:06:05;100993.97;;;18.67;51.17
74680;BME280;63211;48.548;2.704;2024-03-06T01:08:32;100992.28;;;18.66;51.47
74680;BME280;63211;48.548;2.704;2024-03-06T01:10:58;100961.56;;;18.46;51.12
74680;BME280;63211;48.548;2.704;2024-03-06T01:13:25;101000.63;;;18.71;50.95
74680;BME280;63211;48.548;2.704;2024-03-06T01:15:51;100989.34;;;18.68;51.23
74680;BME280;63211;48.548;2.704;2024-03-06T01:18:18;100992.91;;;18.68;50.70
74680;BME280;63211;48.548;2.704;2024-03-06T01:20:45;100987.59;;;18.73;50.87
74680;BME280;63211;48.548;2.704;2024-03-06T01:23:13;100995.56;;;18.75;50.97
74680;BME280;63211;48.548;2.704;2024-03-06T01:25:39;100988.44;;;18.74;50.70
74680;BME280;63211;48.548;2.704;2024-03-06T01:28:06;100993.06;;;18.73;51.24
74680;BME280;63211;48.548;2.704;2024-03-06T01:30:32;100981.16;;;18.68;50.96
74680;BME280;63211;48.548;2.704;2024-03-06T01:32:59;100995.16;;;18.71;50.67
74680;BME280;63211;48.548;2.704;2024-03-06T01:35:25;100988.28;;;18.69;50.69
74680;BME280;63211;48.548;2.704;2024-03-06T01:37:52;100992.06;;;18.68;51.14
74680;BME280;63211;48.548;2.704;2024-03-06T01:40:20;100991.44;;;18.66;51.01
74680;BME280;63211;48.548;2.704;2024-03-06T01:42:47;100988.09;;;18.64;50.74
74680;BME280;63211;48.548;2.704;2024-03-06T01:45:14;100982.25;;;18.60;51.14
74680;BME280;63211;48.548;2.704;2024-03-06T01:47:41;100986.22;;;18.64;51.02
74680;BME280;63211;48.548;2.704;2024-03-06T01:50:09;100996.91;;;18.66;50.99
74680;BME280;63211;48.548;2.704;2024-03-06T01:52:37;100998.78;;;18.65;51.22
74680;BME280;63211;48.548;2.704;2024-03-06T01:55:05;100996.91;;;18.66;51.34
74680;BME280;63211;48.548;2.704;2024-03-06T01:57:34;101003.41;;;18.65;50.80
74680;BME280;63211;48.548;2.704;2024-03-06T02:00:02;100993.75;;;18.69;50.79
74680;BME280;63211;48.548;2.704;2024-03-06T02:02:30;100993.28;;;18.72;50.94
74680;BME280;63211;48.548;2.704;2024-03-06T02:04:56;100990.53;;;18.72;50.69
74680;BME280;63211;48.548;2.704;2024-03-06T02:07:25;100986.38;;;18.69;50.80
74680;BME280;63211;48.548;2.704;2024-03-06T02:09:52;100993.06;;;18.73;51.04
74680;BME280;63211;48.548;2.704;2024-03-06T02:12:18;100989.72;;;18.71;51.22
74680;BME280;63211;48.548;2.704;2024-03-06T02:14:46;100994.56;;;18.69;51.08
74680;BME280;63211;48.548;2.704;2024-03-06T02:17:13;100998.34;;;18.68;51.11
74680;BME280;63211;48.548;2.704;2024-03-06T02:19:40;100987.44;;;18.68;51.22
74680;BME280;63211;48.548;2.704;2024-03-06T02:22:09;100989.34;;;18.68;50.64
74680;BME280;63211;48.548;2.704;2024-03-06T02:24:36;100991.44;;;18.66;50.50
74680;BME280;63211;48.548;2.704;2024-03-06T02:27:03;100983.91;;;18.61;50.91
74680;BME280;63211;48.548;2.704;2024-03-06T02:29:30;100987.03;;;18.65;51.09
74680;BME280;63211;48.548;2.704;2024-03-06T02:31:57;100985.16;;;18.65;50.76
74680;BME280;63211;48.548;2.704;2024-03-06T02:34:24;100982.44;;;18.65;50.82
74680;BME280;63211;48.548;2.704;2024-03-06T02:36:51;100983.03;;;18.67;50.92
74680;BME280;63211;48.548;2.704;2024-03-06T02:39:19;100982.00;;;18.68;51.07
74680;BME280;63211;48.548;2.704;2024-03-06T02:41:46;100981.78;;;18.70;50.55
74680;BME280;63211;48.548;2.704;2024-03-06T02:44:14;100984.03;;;18.73;50.98
74680;BME280;63211;48.548;2.704;2024-03-06T02:46:40;100984.66;;;18.75;50.48
74680;BME280;63211;48.548;2.704;2024-03-06T02:49:07;100990.09;;;18.75;50.40
74680;BME280;63211;48.548;2.704;2024-03-06T02:51:34;100980.88;;;18.76;50.66
74680;BME280;63211;48.548;2.704;2024-03-06T02:54:01;100977.53;;;18.74;50.76
74680;BME280;63211;48.548;2.704;2024-03-06T02:56:29;100981.31;;;18.73;50.92
74680;BME280;63211;48.548;2.704;2024-03-06T02:58:55;100986.97;;;18.71;50.83
74680;BME280;63211;48.548;2.704;2024-03-06T03:01:23;100927.44;;;18.30;50.61
74680;BME280;63211;48.548;2.704;2024-03-06T03:03:49;100989.34;;;18.68;50.94
74680;BME280;63211;48.548;2.704;2024-03-06T03:06:16;100986.22;;;18.64;50.51
74680;BME280;63211;48.548;2.704;2024-03-06T03:08:43;100986.22;;;18.64;50.68
74680;BME280;63211;48.548;2.704;2024-03-06T03:11:09;100989.78;;;18.65;50.71
74680;BME280;63211;48.548;2.704;2024-03-06T03:13:39;100987.25;;;18.63;50.64
74680;BME280;63211;48.548;2.704;2024-03-06T03:16:06;100987.25;;;18.63;50.98
74680;BME280;63211;48.548;2.704;2024-03-06T03:18:32;100976.56;;;18.62;50.55
74680;BME280;63211;48.548;2.704;2024-03-06T03:20:59;100980.75;;;18.64;50.78
74680;BME280;63211;48.548;2.704;2024-03-06T03:23:26;100984.94;;;18.67;50.74
74680;BME280;63211;48.548;2.704;2024-03-06T03:25:53;100955.47;;;18.44;50.50
74680;BME280;63211;48.548;2.704;2024-03-06T03:28:19;100975.09;;;18.66;50.23
74680;BME280;63211;48.548;2.704;2024-03-06T03:30:47;100975.47;;;18.69;50.40
74680;BME280;63211;48.548;2.704;2024-03-06T03:33:14;100976.47;;;18.75;50.26
74680;BME280;63211;48.548;2.704;2024-03-06T03:35:40;100978.56;;;18.73;50.38
74680;BME280;63211;48.548;2.704;2024-03-06T03:38:07;100989.06;;;18.76;50.56
74680;BME280;63211;48.548;2.704;2024-03-06T03:40:33;100989.28;;;18.74;50.70
74680;BME280;63211;48.548;2.704;2024-03-06T03:43:00;100982.13;;;18.73;50.72
74680;BME280;63211;48.548;2.704;2024-03-06T03:45:32;100979.03;;;18.70;51.04
74680;BME280;63211;48.548;2.704;2024-03-06T03:48:01;100984.72;;;18.68;50.96
74680;BME280;63211;48.548;2.704;2024-03-06T03:50:28;100984.09;;;18.66;50.69
74680;BME280;63211;48.548;2.704;2024-03-06T03:52:55;100984.53;;;18.63;50.76
74680;BME280;63211;48.548;2.704;2024-03-06T03:55:23;100983.47;;;18.64;51.01
74680;BME280;63211;48.548;2.704;2024-03-06T03:57:51;100977.19;;;18.64;50.76
74680;BME280;63211;48.548;2.704;2024-03-06T04:00:18;100973.41;;;18.58;50.71
74680;BME280;63211;48.548;2.704;2024-03-06T04:02:44;100991.84;;;18.69;50.49
74680;BME280;63211;48.548;2.704;2024-03-06T04:05:13;100991.22;;;18.67;50.50
74680;BME280;63211;48.548;2.704;2024-03-06T04:07:39;100998.50;;;18.73;50.04
74680;BME280;63211;48.548;2.704;2024-03-06T04:10:07;100998.06;;;18.76;50.22
74680;BME280;63211;48.548;2.704;2024-03-06T04:12:36;101001.41;;;18.78;50.02
74680;BME280;63211;48.548;2.704;2024-03-06T04:15:03;101000.34;;;18.79;49.87
74680;BME280;63211;48.548;2.704;2024-03-06T04:17:30;100999.31;;;18.80;50.14
74680;BME280;63211;48.548;2.704;2024-03-06T04:19:57;101003.94;;;18.80;50.34
74680;BME280;63211;48.548;2.704;2024-03-06T04:22:25;101000.19;;;18.74;50.45
74680;BME280;63211;48.548;2.704;2024-03-06T04:24:51;100999.34;;;18.74;50.65
74680;BME280;63211;48.548;2.704;2024-03-06T04:27:18;101011.09;;;18.74;51.03
74680;BME280;63211;48.548;2.704;2024-03-06T04:29:44;101015.94;;;18.72;50.49
74680;BME280;63211;48.548;2.704;2024-03-06T04:32:11;101014.25;;;18.71;50.45
74680;BME280;63211;48.548;2.704;2024-03-06T04:34:37;101015.78;;;18.67;50.71
74680;BME280;63211;48.548;2.704;2024-03-06T04:37:04;101017.88;;;18.65;50.43
74680;BME280;63211;48.548;2.704;2024-03-06T04:39:33;101022.50;;;18.65;50.76
74680;BME280;63211;48.548;2.704;2024-03-06T04:41:59;101029.84;;;18.64;50.76
74680;BME280;63211;48.548;2.704;2024-03-06T04:44:27;101041.38;;;18.66;50.60
74680;BME280;63211;48.548;2.704;2024-03-06T04:46:54;101030.25;;;18.68;50.46
74680;BME280;63211;48.548;2.704;2024-03-06T04:49:20;101023.75;;;18.69;50.29
74680;BME280;63211;48.548;2.704;2024-03-06T04:51:47;101033.97;;;18.73;50.12
74680;BME280;63211;48.548;2.704;2024-03-06T04:54:13;101031.03;;;18.75;50.05
74680;BME280;63211;48.548;2.704;2024-03-06T04:56:41;101037.72;;;18.79;49.89
74680;BME280;63211;48.548;2.704;2024-03-06T04:59:08;101042.13;;;18.80;50.18
74680;BME280;63211;48.548;2.704;2024-03-06T05:01:34;101045.69;;;18.80;50.23
74680;BME280;63211;48.548;2.704;2024-03-06T05:04:01;101039.38;;;18.80;50.13
74680;BME280;63211;48.548;2.704;2024-03-06T05:06:29;101046.72;;;18.79;50.21
74680;BME280;63211;48.548;2.704;2024-03-06T05:08:55;101049.69;;;18.78;50.30
74680;BME280;63211;48.548;2.704;2024-03-06T05:11:22;101053.47;;;18.77;50.34
74680;BME280;63211;48.548;2.704;2024-03-06T05:13:50;101051.38;;;18.72;50.58
74680;BME280;63211;48.548;2.704;2024-03-06T05:16:16;101047.81;;;18.72;50.89
74680;BME280;63211;48.548;2.704;2024-03-06T05:18:43;101056.25;;;18.70;50.87
74680;BME280;63211;48.548;2.704;2024-03-06T05:21:10;101060.03;;;18.69;50.91
74680;BME280;63211;48.548;2.704;2024-03-06T05:23:37;101055.00;;;18.66;50.72
74680;BME280;63211;48.548;2.704;2024-03-06T05:26:04;101057.53;;;18.68;50.76
74680;BME280;63211;48.548;2.704;2024-03-06T05:28:30;101053.34;;;18.65;50.77
74680;BME280;63211;48.548;2.704;2024-03-06T05:30:58;101062.13;;;18.67;50.59
74680;BME280;63211;48.548;2.704;2024-03-06T05:33:26;101059.19;;;18.69;50.06
74680;BME280;63211;48.548;2.704;2024-03-06T05:35:53;101054.38;;;18.64;49.90
74680;BME280;63211;48.548;2.704;2024-03-06T05:38:21;101072.78;;;18.75;49.57
74680;BME280;63211;48.548;2.704;2024-03-06T05:40:47;101069.59;;;18.78;49.77
74680;BME280;63211;48.548;2.704;2024-03-06T05:43:14;101070.22;;;18.80;49.73
74680;BME280;63211;48.548;2.704;2024-03-06T05:45:40;101074.84;;;18.80;49.42
74680;BME280;63211;48.548;2.704;2024-03-06T05:48:08;101078.63;;;18.79;49.81
74680;BME280;63211;48.548;2.704;2024-03-06T05:50:35;101086.38;;;18.82;49.89
74680;BME280;63211;48.548;2.704;2024-03-06T05:53:01;101088.28;;;18.81;50.13
74680;BME280;63211;48.548;2.704;2024-03-06T05:55:28;101089.31;;;18.80;50.25
74680;BME280;63211;48.548;2.704;2024-03-06T05:57:54;101082.63;;;18.76;50.26
74680;BME280;63211;48.548;2.704;2024-03-06T06:00:21;101088.31;;;18.75;50.91
74680;BME280;63211;48.548;2.704;2024-03-06T06:02:48;101100.25;;;18.74;50.71
74680;BME280;63211;48.548;2.704;2024-03-06T06:05:16;101099.66;;;18.72;50.75
74680;BME280;63211;48.548;2.704;2024-03-06T06:07:45;101094.44;;;18.70;50.53
74680;BME280;63211;48.548;2.704;2024-03-06T06:10:12;101100.09;;;18.69;50.55
74680;BME280;63211;48.548;2.704;2024-03-06T06:12:38;101104.72;;;18.68;50.76
74680;BME280;63211;48.548;2.704;2024-03-06T06:15:07;101058.06;;;18.38;50.38
74680;BME280;63211;48.548;2.704;2024-03-06T06:17:33;101109.72;;;18.71;50.07
74680;BME280;63211;48.548;2.704;2024-03-06T06:20:00;101122.09;;;18.74;49.55
74680;BME280;63211;48.548;2.704;2024-03-06T06:22:28;101123.75;;;18.75;49.75
74680;BME280;63211;48.548;2.704;2024-03-06T06:24:55;101126.69;;;18.80;49.58
74680;BME280;63211;48.548;2.704;2024-03-06T06:27:22;101127.09;;;18.83;49.47
74680;BME280;63211;48.548;2.704;2024-03-06T06:29:50;101130.44;;;18.85;49.30
74680;BME280;63211;48.548;2.704;2024-03-06T06:32:18;101139.47;;;18.86;49.74
74680;BME280;63211;48.548;2.704;2024-03-06T06:34:45;101133.38;;;18.84;49.93
74680;BME280;63211;48.548;2.704;2024-03-06T06:37:12;101134.22;;;18.84;50.06
74680;BME280;63211;48.548;2.704;2024-03-06T06:39:41;101127.09;;;18.83;50.09
74680;BME280;63211;48.548;2.704;2024-03-06T06:42:08;101112.22;;;18.73;50.44
74680;BME280;63211;48.548;2.704;2024-03-06T06:44:36;101132.97;;;18.80;50.90
74680;BME280;63211;48.548;2.704;2024-03-06T06:47:02;101129.84;;;18.77;50.70
74680;BME280;63211;48.548;2.704;2024-03-06T06:49:29;101137.41;;;18.75;50.82
74680;BME280;63211;48.548;2.704;2024-03-06T06:51:55;101145.78;;;18.73;50.20
74680;BME280;63211;48.548;2.704;2024-03-06T06:54:22;101134.50;;;18.70;50.87
74680;BME280;63211;48.548;2.704;2024-03-06T06:56:50;101142.44;;;18.71;51.48
74680;BME280;63211;48.548;2.704;2024-03-06T06:59:16;101147.91;;;18.71;51.57
74680;BME280;63211;48.548;2.704;2024-03-06T07:01:45;101149.78;;;18.71;51.89
74680;BME280;63211;48.548;2.704;2024-03-06T07:04:12;101155.03;;;18.72;52.35
74680;BME280;63211;48.548;2.704;2024-03-06T07:06:41;101158.59;;;18.73;52.56
74680;BME280;63211;48.548;2.704;2024-03-06T07:09:08;101163.63;;;18.76;52.94
74680;BME280;63211;48.548;2.704;2024-03-06T07:11:34;101170.13;;;18.81;53.30
74680;BME280;63211;48.548;2.704;2024-03-06T07:14:02;101160.25;;;18.80;53.17
74680;BME280;63211;48.548;2.704;2024-03-06T07:16:29;101165.28;;;18.83;53.52
74680;BME280;63211;48.548;2.704;2024-03-06T07:18:56;101173.25;;;18.85;53.16
74680;BME280;63211;48.548;2.704;2024-03-06T07:21:24;101175.13;;;18.91;55.33
74680;BME280;63211;48.548;2.704;2024-03-06T07:23:50;101168.00;;;18.83;54.88
74680;BME280;63211;48.548;2.704;2024-03-06T07:26:17;101174.72;;;18.87;54.63
74680;BME280;63211;48.548;2.704;2024-03-06T07:28:43;101178.69;;;18.85;54.73
74680;BME280;63211;48.548;2.704;2024-03-06T07:31:11;101181.88;;;18.82;53.54
74680;BME280;63211;48.548;2.704;2024-03-06T07:33:38;101185.63;;;18.81;53.45
74680;BME280;63211;48.548;2.704;2024-03-06T07:36:05;101179.38;;;18.74;53.56
74680;BME280;63211;48.548;2.704;2024-03-06T07:38:31;101190.69;;;18.77;53.25
74680;BME280;63211;48.548;2.704;2024-03-06T07:40:58;101193.63;;;18.76;53.46
74680;BME280;63211;48.548;2.704;2024-03-06T07:43:25;101198.25;;;18.75;53.24
74680;BME280;63211;48.548;2.704;2024-03-06T07:45:52;101198.47;;;18.74;53.35
74680;BME280;63211;48.548;2.704;2024-03-06T07:48:20;101199.94;;;18.76;53.51
74680;BME280;63211;48.548;2.704;2024-03-06T07:50:46;101198.88;;;18.77;53.56
74680;BME280;63211;48.548;2.704;2024-03-06T07:53:13;101201.16;;;18.80;53.98
74680;BME280;63211;48.548;2.704;2024-03-06T07:55:39;101208.31;;;18.81;53.99
74680;BME280;63211;48.548;2.704;2024-03-06T07:58:06;101209.75;;;18.84;53.99
74680;BME280;63211;48.548;2.704;2024-03-06T08:00:34;101213.34;;;18.84;53.90
74680;BME280;63211;48.548;2.704;2024-03-06T08:03:01;101219.63;;;18.85;53.78
74680;BME280;63211;48.548;2.704;2024-03-06T08:05:29;101218.56;;;18.86;53.78
74680;BME280;63211;48.548;2.704;2024-03-06T08:07:56;101218.56;;;18.86;53.61
74680;BME280;63211;48.548;2.704;2024-03-06T08:10:23;101224.25;;;18.84;53.54
74680;BME280;63211;48.548;2.704;2024-03-06T08:12:49;101226.13;;;18.84;53.22
74680;BME280;63211;48.548;2.704;2024-03-06T08:15:16;101232.66;;;18.83;53.28
74680;BME280;63211;48.548;2.704;2024-03-06T08:17:43;101230.13;;;18.81;53.12
74680;BME280;63211;48.548;2.704;2024-03-06T08:20:11;101236.84;;;18.79;53.62
74680;BME280;63211;48.548;2.704;2024-03-06T08:22:40;101229.91;;;18.83;53.52
74680;BME280;63211;48.548;2.704;2024-03-06T08:25:08;101226.56;;;18.74;53.17
74680;BME280;63211;48.548;2.704;2024-03-06T08:27:35;101239.38;;;18.80;53.01
74680;BME280;63211;48.548;2.704;2024-03-06T08:30:03;101243.34;;;18.78;52.97
74680;BME280;63211;48.548;2.704;2024-03-06T08:32:30;101244.41;;;18.77;53.14
74680;BME280;63211;48.548;2.704;2024-03-06T08:34:57;101244.19;;;18.78;52.95
74680;BME280;63211;48.548;2.704;2024-03-06T08:37:23;101241.91;;;18.75;53.30
74680;BME280;63211;48.548;2.704;2024-03-06T08:39:51;101257.41;;;18.81;53.29
74680;BME280;63211;48.548;2.704;2024-03-06T08:42:18;101249.00;;;18.83;53.72
74680;BME280;63211;48.548;2.704;2024-03-06T08:44:44;101246.28;;;18.83;53.34
74680;BME280;63211;48.548;2.704;2024-03-06T08:47:11;101251.31;;;18.86;53.62
74680;BME280;63211;48.548;2.704;2024-03-06T08:49:38;101221.38;;;18.66;53.54
74680;BME280;63211;48.548;2.704;2024-03-06T08:52:05;101259.50;;;18.86;53.15
74680;BME280;63211;48.548;2.704;2024-03-06T08:54:32;101255.09;;;18.85;53.04
74680;BME280;63211;48.548;2.704;2024-03-06T08:57:00;101271.69;;;18.83;53.07
74680;BME280;63211;48.548;2.704;2024-03-06T08:59:28;101275.47;;;18.82;52.89
74680;BME280;63211;48.548;2.704;2024-03-06T09:01:55;101272.09;;;18.87;52.64
74680;BME280;63211;48.548;2.704;2024-03-06T09:04:22;101272.72;;;18.89;52.94
74680;BME280;63211;48.548;2.704;2024-03-06T09:06:48;101279.66;;;18.85;52.48
74680;BME280;63211;48.548;2.704;2024-03-06T09:09:15;101270.97;;;19.01;53.13
74680;BME280;63211;48.548;2.704;2024-03-06T09:11:41;101283.28;;;19.17;53.23
74680;BME280;63211;48.548;2.704;2024-03-06T09:14:10;101279.50;;;19.18;52.87
74680;BME280;63211;48.548;2.704;2024-03-06T09:16:36;101282.44;;;19.16;52.77
74680;BME280;63211;48.548;2.704;2024-03-06T09:19:03;101288.09;;;19.21;52.42
74680;BME280;63211;48.548;2.704;2024-03-06T09:21:29;101244.97;;;18.99;52.22
74680;BME280;63211;48.548;2.704;2024-03-06T09:23:56;101293.75;;;19.27;52.13
74680;BME280;63211;48.548;2.704;2024-03-06T09:26:22;101287.03;;;19.29;51.71
74680;BME280;63211;48.548;2.704;2024-03-06T09:28:49;101286.34;;;19.34;51.60
74680;BME280;63211;48.548;2.704;2024-03-06T09:31:17;101280.66;;;19.42;51.74
74680;BME280;63211;48.548;2.704;2024-03-06T09:33:43;101282.06;;;19.58;51.40
74680;BME280;63211;48.548;2.704;2024-03-06T09:36:11;101282.03;;;19.64;51.83
74680;BME280;63211;48.548;2.704;2024-03-06T09:38:39;101283.06;;;19.70;51.40
74680;BME280;63211;48.548;2.704;2024-03-06T09:41:07;101281.78;;;19.72;51.47
74680;BME280;63211;48.548;2.704;2024-03-06T09:43:34;101284.50;;;19.72;51.72
74680;BME280;63211;48.548;2.704;2024-03-06T09:46:01;101288.34;;;19.58;51.84
74680;BME280;63211;48.548;2.704;2024-03-06T09:48:29;101298.50;;;19.44;51.88
74680;BME280;63211;48.548;2.704;2024-03-06T09:51:00;101293.06;;;19.38;51.96
74680;BME280;63211;48.548;2.704;2024-03-06T09:53:27;101300.25;;;19.32;51.95
74680;BME280;63211;48.548;2.704;2024-03-06T09:55:56;101303.00;;;19.26;52.17
74680;BME280;63211;48.548;2.704;2024-03-06T09:58:23;101297.97;;;19.22;52.31
74680;BME280;63211;48.548;2.704;2024-03-06T10:00:51;101298.59;;;19.25;51.94
74680;BME280;63211;48.548;2.704;2024-03-06T10:03:19;101300.28;;;19.26;51.86
74680;BME280;63211;48.548;2.704;2024-03-06T10:05:47;101300.06;;;19.27;52.01
74680;BME280;63211;48.548;2.704;2024-03-06T10:08:14;101302.78;;;19.27;51.75
74680;BME280;63211;48.548;2.704;2024-03-06T10:10:42;101301.31;;;19.31;51.87
74680;BME280;63211;48.548;2.704;2024-03-06T10:13:08;101305.63;;;19.45;52.04
74680;BME280;63211;48.548;2.704;2024-03-06T10:15:36;101287.19;;;19.34;51.46
74680;BME280;63211;48.548;2.704;2024-03-06T10:18:13;101300.19;;;19.45;51.53
74680;BME280;63211;48.548;2.704;2024-03-06T10:20:41;101307.53;;;19.45;51.38
74680;BME280;63211;48.548;2.704;2024-03-06T10:23:11;101306.47;;;19.52;51.43
74680;BME280;63211;48.548;2.704;2024-03-06T10:25:39;101261.66;;;19.22;51.52
74680;BME280;63211;48.548;2.704;2024-03-06T10:28:10;101307.06;;;19.54;51.04
74680;BME280;63211;48.548;2.704;2024-03-06T10:30:39;101276.34;;;19.28;51.22
74680;BME280;63211;48.548;2.704;2024-03-06T10:33:08;101312.38;;;19.36;51.42
74680;BME280;63211;48.548;2.704;2024-03-06T10:35:36;101312.59;;;19.35;51.44
74680;BME280;63211;48.548;2.704;2024-03-06T10:38:08;101305.31;;;19.29;51.59
74680;BME280;63211;48.548;2.704;2024-03-06T10:40:39;101315.56;;;19.33;51.56
74680;BME280;63211;48.548;2.704;2024-03-06T10:43:08;101320.53;;;19.49;51.20
74680;BME280;63211;48.548;2.704;2024-03-06T10:45:40;101319.13;;;19.34;51.38
74680;BME280;63211;48.548;2.704;2024-03-06T10:48:09;101326.88;;;19.37;51.16
74680;BME280;63211;48.548;2.704;2024-03-06T10:50:39;101323.31;;;19.36;51.19
74680;BME280;63211;48.548;2.704;2024-03-06T10:53:10;101290.00;;;19.21;50.77
74680;BME280;63211;48.548;2.704;2024-03-06T10:55:40;101308.19;;;19.34;50.56
74680;BME280;63211;48.548;2.704;2024-03-06T10:58:08;101340.75;;;19.35;50.48
74680;BME280;63211;48.548;2.704;2024-03-06T11:00:37;101325.00;;;19.37;50.70
74680;BME280;63211;48.548;2.704;2024-03-06T11:03:06;101329.41;;;19.38;50.47
74680;BME280;63211;48.548;2.704;2024-03-06T11:05:35;101310.16;;;19.27;50.29
74680;BME280;63211;48.548;2.704;2024-03-06T11:08:05;101332.56;;;19.35;50.31
74680;BME280;63211;48.548;2.704;2024-03-06T11:10:33;101333.03;;;19.32;50.43
74680;BME280;63211;48.548;2.704;2024-03-06T11:13:02;101324.00;;;19.25;50.01
74680;BME280;63211;48.548;2.704;2024-03-06T11:15:30;101337.81;;;19.37;50.00
74680;BME280;63211;48.548;2.704;2024-03-06T11:17:57;101338.66;;;19.37;49.90
74680;BME280;63211;48.548;2.704;2024-03-06T11:20:23;101339.31;;;19.33;50.11
74680;BME280;63211;48.548;2.704;2024-03-06T11:23:05;101327.16;;;19.22;50.05
74680;BME280;63211;48.548;2.704;2024-03-06T11:26:04;101339.97;;;19.28;50.03
74680;BME280;63211;48.548;2.704;2024-03-06T11:28:33;101352.16;;;19.26;49.99
74680;BME280;63211;48.548;2.704;2024-03-06T11:31:01;101348.16;;;19.21;50.01
74680;BME280;63211;48.548;2.704;2024-03-06T11:33:34;101348.59;;;19.18;50.38
74680;BME280;63211;48.548;2.704;2024-03-06T11:36:16;101350.47;;;19.18;49.98
74680;BME280;63211;48.548;2.704;2024-03-06T11:38:47;101349.44;;;19.19;49.59
74680;BME280;63211;48.548;2.704;2024-03-06T11:41:14;101345.44;;;19.15;49.25
74680;BME280;63211;48.548;2.704;2024-03-06T11:43:45;101350.69;;;19.16;48.96
74680;BME280;63211;48.548;2.704;2024-03-06T11:46:12;101343.56;;;19.15;49.26
74680;BME280;63211;48.548;2.704;2024-03-06T11:48:38;101350.28;;;19.19;49.36
74680;BME280;63211;48.548;2.704;2024-03-06T11:51:05;101353.44;;;19.16;49.25
74680;BME280;63211;48.548;2.704;2024-03-06T11:53:33;101354.69;;;19.20;49.21
74680;BME280;63211;48.548;2.704;2024-03-06T11:56:01;101331.66;;;19.03;49.08
74680;BME280;63211;48.548;2.704;2024-03-06T11:58:28;101357.41;;;19.20;49.01
74680;BME280;63211;48.548;2.704;2024-03-06T12:00:56;101349.84;;;19.22;49.42
74680;BME280;63211;48.548;2.704;2024-03-06T12:03:23;101347.72;;;19.31;49.18
74680;BME280;63211;48.548;2.704;2024-03-06T12:05:50;101348.72;;;19.37;49.29
74680;BME280;63211;48.548;2.704;2024-03-06T12:08:17;101332.19;;;19.25;48.97
74680;BME280;63211;48.548;2.704;2024-03-06T12:10:45;101353.13;;;19.38;48.76
74680;BME280;63211;48.548;2.704;2024-03-06T12:13:12;101361.53;;;19.36;48.64
74680;BME280;63211;48.548;2.704;2024-03-06T12:15:41;101356.72;;;19.38;48.87
74680;BME280;63211;48.548;2.704;2024-03-06T12:18:09;101330.31;;;19.26;48.50
74680;BME280;63211;48.548;2.704;2024-03-06T12:20:40;101339.13;;;19.28;48.71
74680;BME280;63211;48.548;2.704;2024-03-06T12:23:19;101359.25;;;19.33;48.95
74680;BME280;63211;48.548;2.704;2024-03-06T12:25:46;101348.56;;;19.32;48.98
74680;BME280;63211;48.548;2.704;2024-03-06T12:28:13;101357.34;;;19.34;48.87
74680;BME280;63211;48.548;2.704;2024-03-06T12:30:41;101353.34;;;19.36;49.19
74680;BME280;63211;48.548;2.704;2024-03-06T12:33:16;101360.06;;;19.34;49.22
74680;BME280;63211;48.548;2.704;2024-03-06T12:35:42;101351.47;;;19.37;49.00
74680;BME280;63211;48.548;2.704;2024-03-06T12:38:12;101357.13;;;19.35;49.05
74680;BME280;63211;48.548;2.704;2024-03-06T12:40:39;101348.94;;;19.35;49.00
74680;BME280;63211;48.548;2.704;2024-03-06T12:43:06;101325.47;;;19.28;48.97
74680;BME280;63211;48.548;2.704;2024-03-06T12:45:33;101347.50;;;19.33;48.89
74680;BME280;63211;48.548;2.704;2024-03-06T12:48:00;101350.44;;;19.31;48.98
74680;BME280;63211;48.548;2.704;2024-03-06T12:50:30;101321.34;;;19.12;49.23
74680;BME280;63211;48.548;2.704;2024-03-06T12:52:56;101333.88;;;19.26;49.05